Time;durP1;ratioP1;P1;durP2;ratioP2;P2;SDS_P1;SDS_P2;PMS_P1;PMS_P2;Temp;Humidity;BMP_temperature;BMP_pressure;BME280_temperature;BME280_humidity;BME280_pressure;Samples;Min_cycle;Max_cycle;Signal;HPM_P1;HPM_P2
2022/12/01 00:01:16;;;;;;;93.53;43.00;;;8.40;75.50;;;;;;2353600;57;22054;-52
2022/12/01 00:03:43;;;;;;;90.12;42.88;;;8.40;75.40;;;;;;2345073;57;21522;-52
2022/12/01 00:06:14;;;;;;;93.43;41.13;;;8.40;75.50;;;;;;2343774;57;21057;-53
2022/12/01 00:10:24;;;;;;;96.37;43.63;;;8.40;75.50;;;;;;2344600;57;21042;-54
2022/12/01 00:12:51;;;;;;;84.35;37.58;;;8.40;75.40;;;;;;2345164;57;21065;-52
2022/12/01 00:15:19;;;;;;;91.55;44.03;;;8.40;75.10;;;;;;2345499;57;21608;-51
2022/12/01 00:17:46;;;;;;;92.82;44.10;;;8.40;75.40;;;;;;2344801;57;21102;-54
2022/12/01 00:20:14;;;;;;;93.20;41.88;;;8.30;75.40;;;;;;2344601;57;21034;-54
2022/12/01 00:22:43;;;;;;;90.55;43.75;;;8.30;75.40;;;;;;2343537;57;21121;-50
2022/12/01 00:25:10;;;;;;;96.07;43.35;;;8.30;75.40;;;;;;2345073;57;21050;-54
2022/12/01 00:27:37;;;;;;;95.43;43.92;;;8.30;75.50;;;;;;2345005;57;21546;-53
2022/12/01 00:30:08;;;;;;;90.50;41.33;;;8.30;75.60;;;;;;2344618;57;21049;-51
2022/12/01 00:32:35;;;;;;;95.78;42.50;;;8.30;75.50;;;;;;2346388;57;21018;-53
2022/12/01 00:35:04;;;;;;;95.35;43.35;;;8.30;75.50;;;;;;2346455;57;21030;-53
2022/12/01 00:37:33;;;;;;;97.80;43.87;;;8.30;75.40;;;;;;2344715;57;21097;-53
2022/12/01 00:40:00;;;;;;;99.78;45.05;;;8.30;75.40;;;;;;2341838;57;21116;-53
2022/12/01 00:42:28;;;;;;;107.70;45.40;;;8.30;75.40;;;;;;2343139;57;21038;-52
2022/12/01 00:44:55;;;;;;;95.32;44.78;;;8.30;75.30;;;;;;2344057;57;21164;-51
2022/12/01 00:47:23;;;;;;;93.93;43.72;;;8.30;75.40;;;;;;2344588;57;22115;-52
2022/12/01 00:49:51;;;;;;;92.43;43.05;;;8.20;75.40;;;;;;2344983;57;21616;-52
2022/12/01 00:52:19;;;;;;;91.75;42.62;;;8.30;75.40;;;;;;2344938;57;21510;-53
2022/12/01 00:54:46;;;;;;;92.32;43.53;;;8.20;75.40;;;;;;2344079;57;21038;-50
2022/12/01 00:57:14;;;;;;;99.07;43.70;;;8.20;75.50;;;;;;2343515;57;21149;-53
2022/12/01 00:59:41;;;;;;;97.22;43.53;;;8.20;75.40;;;;;;2344705;57;21050;-50
2022/12/01 01:02:09;;;;;;;91.55;44.33;;;8.20;75.40;;;;;;2344714;57;21125;-52
2022/12/01 01:04:36;;;;;;;106.45;46.15;;;8.20;75.30;;;;;;2553089;52;21031;-53
2022/12/01 01:07:03;;;;;;;91.97;41.92;;;8.20;75.40;;;;;;2376445;56;21019;-52
2022/12/01 01:09:32;;;;;;;99.82;45.28;;;8.20;75.50;;;;;;2375675;56;21098;-52
2022/12/01 01:11:59;;;;;;;101.57;44.65;;;8.20;75.40;;;;;;2377080;56;21505;-50
2022/12/01 01:14:26;;;;;;;101.22;44.03;;;8.20;76.10;;;;;;2375173;56;21171;-51
2022/12/01 01:16:55;;;;;;;97.25;42.25;;;8.20;75.40;;;;;;2373280;56;21094;-51
2022/12/01 01:19:23;;;;;;;97.15;43.58;;;8.20;75.60;;;;;;2374274;56;21027;-53
2022/12/01 01:21:50;;;;;;;89.07;40.42;;;8.20;75.60;;;;;;2374342;56;21660;-50
2022/12/01 01:24:17;;;;;;;93.75;40.35;;;8.20;75.60;;;;;;2374495;56;22011;-51
2022/12/01 01:26:44;;;;;;;92.85;41.92;;;8.20;75.60;;;;;;2374944;56;21530;-53
2022/12/01 01:29:11;;;;;;;97.47;43.65;;;8.20;75.60;;;;;;2375157;56;21322;-52
2022/12/01 01:31:39;;;;;;;96.25;41.37;;;8.20;75.70;;;;;;2374405;56;21030;-52
2022/12/01 01:34:06;;;;;;;101.18;42.92;;;8.20;75.60;;;;;;2373634;56;21014;-50
2022/12/01 01:36:33;;;;;;;101.75;44.97;;;8.20;75.50;;;;;;2374184;56;21015;-50
2022/12/01 01:39:01;;;;;;;100.60;47.42;;;8.20;75.50;;;;;;2374056;56;21074;-53
2022/12/01 01:41:28;;;;;;;95.43;42.95;;;8.20;75.40;;;;;;2374066;56;21086;-51
2022/12/01 01:43:57;;;;;;;95.47;43.03;;;8.20;75.40;;;;;;2375636;56;21558;-51
2022/12/01 01:46:26;;;;;;;99.15;44.78;;;8.20;75.40;;;;;;2376049;56;21551;-53
2022/12/01 01:48:56;;;;;;;98.22;45.45;;;8.20;75.40;;;;;;2375624;56;21015;-48
2022/12/01 01:51:29;;;;;;;94.45;42.13;;;8.20;75.40;;;;;;2374760;56;21554;-50
2022/12/01 01:54:03;;;;;;;91.50;43.17;;;8.10;75.30;;;;;;2374292;56;21035;-54
2022/12/01 01:59:07;;;;;;;100.45;43.22;;;8.10;75.30;;;;;;2297882;58;22132;-50
2022/12/01 02:01:34;;;;;;;98.55;42.70;;;8.20;75.40;;;;;;2292069;58;21058;-52
2022/12/01 02:04:03;;;;;;;103.53;46.05;;;8.10;75.30;;;;;;2306739;58;21052;-53
2022/12/01 02:06:30;;;;;;;98.78;42.28;;;8.10;75.20;;;;;;2318861;58;21164;-53
2022/12/01 02:08:57;;;;;;;108.80;45.67;;;8.10;75.30;;;;;;2318073;58;21623;-52
2022/12/01 02:11:53;;;;;;;104.12;46.17;;;8.10;76.20;;;;;;2318185;58;21067;-54
2022/12/01 02:14:48;;;;;;;103.18;46.63;;;8.10;75.30;;;;;;2317908;58;21516;-51
2022/12/01 02:17:27;;;;;;;99.05;42.88;;;8.00;75.10;;;;;;2317726;58;21060;-54
2022/12/01 02:20:18;;;;;;;100.68;44.83;;;8.00;75.10;;;;;;2318728;58;21052;-53
2022/12/01 02:23:00;;;;;;;109.63;45.40;;;8.00;75.20;;;;;;2319029;58;21568;-53
2022/12/01 02:25:37;;;;;;;96.32;43.33;;;8.00;75.20;;;;;;2319244;58;21044;-52
2022/12/01 02:28:37;;;;;;;100.55;43.05;;;8.00;75.30;;;;;;2319311;58;21505;-53
2022/12/01 02:31:11;;;;;;;104.70;44.63;;;8.00;75.40;;;;;;2318199;58;22167;-56
2022/12/01 02:33:39;;;;;;;;;;;8.00;75.20;;;;;;2320568;58;21053;-53
2022/12/01 02:36:14;;;;;;;97.57;41.80;;;8.10;75.30;;;;;;2318239;58;20429;-53
2022/12/01 02:38:51;;;;;;;101.03;42.92;;;8.10;74.90;;;;;;2317351;58;21056;-52
2022/12/01 02:41:37;;;;;;;102.38;45.80;;;8.00;75.10;;;;;;2318319;58;21655;-50
2022/12/01 02:44:10;;;;;;;103.72;46.15;;;8.00;75.20;;;;;;2317214;58;21678;-51
2022/12/01 02:46:39;;;;;;;;;;;8.00;75.20;;;;;;2321453;58;21595;-55
2022/12/01 02:49:12;;;;;;;95.45;40.30;;;8.10;75.30;;;;;;2318130;58;20132;-53
2022/12/01 02:51:43;;;;;;;;;;;8.00;74.90;;;;;;2321534;58;21057;-51
2022/12/01 02:54:12;;;;;;;89.10;39.83;;;8.00;75.20;;;;;;2317958;58;20115;-50
2022/12/01 02:56:39;;;;;;;97.85;41.97;;;8.00;74.90;;;;;;2318214;58;22215;-50
2022/12/01 03:01:57;;;;;;;94.87;42.72;;;8.00;75.30;;;;;;2355280;57;22066;-52
2022/12/01 03:04:51;;;;;;;102.90;44.30;;;8.00;75.70;;;;;;2346914;57;21357;-53
2022/12/01 03:07:35;;;;;;;104.07;45.78;;;8.00;75.80;;;;;;2346546;57;21125;-55
2022/12/01 03:10:11;;;;;;;96.93;41.95;;;8.00;75.60;;;;;;2345215;57;21089;-50
2022/12/01 03:12:49;;;;;;;96.85;42.47;;;8.00;75.50;;;;;;2344637;57;21049;-50
2022/12/01 03:15:27;;;;;;;105.60;44.28;;;8.00;75.50;;;;;;2344585;57;21050;-55
2022/12/01 03:18:01;;;;;;;105.80;44.03;;;8.00;75.40;;;;;;2345446;57;21046;-54
2022/12/01 03:20:34;;;;;;;101.07;40.90;;;8.00;75.30;;;;;;2345875;57;21133;-53
2022/12/01 03:23:09;;;;;;;102.90;42.78;;;8.00;75.40;;;;;;2346198;57;21593;-53
2022/12/01 03:25:39;;;;;;;97.90;42.65;;;8.00;75.40;;;;;;2345786;57;21061;-52
2022/12/01 03:28:08;;;;;;;98.47;43.97;;;8.00;75.40;;;;;;2345573;57;21718;-53
2022/12/01 03:30:37;;;;;;;95.72;42.22;;;8.00;75.50;;;;;;2345372;57;21045;-52
2022/12/01 03:33:09;;;;;;;100.07;42.53;;;8.00;75.40;;;;;;2345100;57;21530;-51
2022/12/01 03:35:40;;;;;;;100.90;42.95;;;8.00;75.40;;;;;;2346451;57;22158;-50
2022/12/01 03:38:13;;;;;;;99.25;42.83;;;8.00;75.30;;;;;;2346903;57;21554;-53
2022/12/01 03:40:42;;;;;;;101.32;43.35;;;8.00;75.20;;;;;;2347030;57;21018;-48
2022/12/01 03:43:12;;;;;;;104.75;45.03;;;8.00;75.20;;;;;;2346448;57;21526;-50
2022/12/01 03:45:47;;;;;;;106.45;44.25;;;8.00;75.10;;;;;;2346051;57;21042;-50
2022/12/01 03:48:14;;;;;;;100.90;42.70;;;8.00;75.00;;;;;;2345595;57;21660;-55
2022/12/01 03:50:49;;;;;;;97.28;42.05;;;8.00;75.00;;;;;;2344386;57;21117;-53
2022/12/01 03:53:21;;;;;;;114.10;46.25;;;8.00;75.00;;;;;;2345883;57;22083;-55
2022/12/01 03:55:56;;;;;;;105.57;44.97;;;7.90;74.90;;;;;;2346036;57;21830;-50
2022/12/01 03:58:27;;;;;;;105.85;47.42;;;7.90;74.90;;;;;;2346337;57;21648;-56
2022/12/01 04:00:56;;;;;;;107.22;45.63;;;7.90;74.90;;;;;;2345549;57;21117;-50
2022/12/01 04:03:25;;;;;;;110.05;45.12;;;7.90;74.90;;;;;;2345217;57;21054;-53
2022/12/01 04:05:53;;;;;;;98.05;42.60;;;7.90;74.90;;;;;;2345979;57;21110;-49
2022/12/01 04:08:20;;;;;;;99.13;43.25;;;7.90;75.00;;;;;;2344521;57;21571;-50
2022/12/01 04:10:47;;;;;;;100.07;43.15;;;7.90;75.10;;;;;;2344715;57;21026;-50
2022/12/01 04:13:22;;;;;;;96.43;42.72;;;7.90;75.10;;;;;;2344052;57;21598;-51
2022/12/01 04:15:49;;;;;;;105.55;41.85;;;8.00;75.20;;;;;;2345104;57;21045;-51
2022/12/01 04:18:17;;;;;;;111.62;45.53;;;8.00;75.20;;;;;;2345632;57;21566;-50
2022/12/01 04:20:46;;;;;;;99.80;44.15;;;8.00;76.00;;;;;;2345405;57;21118;-55
2022/12/01 04:23:58;;;;;;;100.90;44.90;;;8.00;75.20;;;;;;2344426;57;21046;-50
2022/12/01 04:26:25;;;;;;;105.47;44.22;;;8.00;75.10;;;;;;2344691;57;21535;-50
2022/12/01 04:28:53;;;;;;;108.65;46.00;;;8.00;75.00;;;;;;2343224;57;21132;-49
2022/12/01 04:31:20;;;;;;;94.28;41.00;;;8.00;75.00;;;;;;2344508;57;21172;-53
2022/12/01 04:33:47;;;;;;;112.82;45.55;;;8.00;75.20;;;;;;2345390;57;21038;-51
2022/12/01 04:36:14;;;;;;;104.60;43.38;;;8.00;75.20;;;;;;2345570;57;21105;-52
2022/12/01 04:38:41;;;;;;;109.82;45.17;;;8.00;75.20;;;;;;2344458;57;21053;-54
2022/12/01 04:41:09;;;;;;;111.75;43.50;;;7.90;75.10;;;;;;2344418;57;21046;-52
2022/12/01 04:43:37;;;;;;;107.82;44.53;;;7.90;75.10;;;;;;2343726;57;21537;-51
2022/12/01 04:46:05;;;;;;;108.18;45.22;;;7.90;75.30;;;;;;2343857;57;22057;-50
2022/12/01 04:48:34;;;;;;;108.93;45.40;;;7.90;75.20;;;;;;2345001;57;21682;-52
2022/12/01 04:51:01;;;;;;;112.10;46.10;;;7.90;75.10;;;;;;2345780;57;20998;-51
2022/12/01 04:56:06;;;;;;;112.00;45.85;;;7.90;75.10;;;;;;2355642;57;22054;-51
2022/12/01 04:58:36;;;;;;;112.80;46.40;;;7.90;75.10;;;;;;2347872;57;21101;-51
2022/12/01 05:01:04;;;;;;;107.63;43.83;;;7.90;75.20;;;;;;2346006;57;21557;-55
2022/12/01 05:03:31;;;;;;;106.47;44.83;;;7.90;75.30;;;;;;2346019;57;21529;-51
2022/12/01 05:06:03;;;;;;;117.13;46.42;;;7.90;75.30;;;;;;2345671;57;21035;-53
2022/12/01 05:08:30;;;;;;;107.35;44.58;;;7.90;75.20;;;;;;2345773;57;21574;-55
2022/12/01 05:10:57;;;;;;;110.45;43.90;;;7.90;75.30;;;;;;2346303;57;21533;-53
2022/12/01 05:13:25;;;;;;;98.60;38.80;;;8.00;75.30;;;;;;2345070;57;21058;-51
2022/12/01 05:15:52;;;;;;;105.28;42.88;;;7.90;75.30;;;;;;2345147;57;21620;-54
2022/12/01 05:18:19;;;;;;;102.50;41.85;;;8.00;75.50;;;;;;2345276;57;21112;-53
2022/12/01 05:20:58;;;;;;;109.07;43.60;;;8.00;75.30;;;;;;2344211;57;21045;-53
2022/12/01 05:23:27;;;;;;;113.72;46.25;;;8.00;75.30;;;;;;2345428;57;21086;-51
2022/12/01 05:25:55;;;;;;;109.22;45.45;;;8.00;75.80;;;;;;2346653;57;21628;-51
2022/12/01 05:28:23;;;;;;;107.00;44.65;;;7.90;74.90;;;;;;2346885;57;21565;-54
2022/12/01 05:30:51;;;;;;;110.95;45.10;;;8.00;75.00;;;;;;2346610;57;21022;-55
2022/12/01 05:33:19;;;;;;;110.85;44.30;;;8.00;74.90;;;;;;2346167;57;21026;-53
2022/12/01 05:35:47;;;;;;;108.10;44.75;;;7.90;74.80;;;;;;2345186;57;21054;-53
2022/12/01 05:38:15;;;;;;;112.97;44.30;;;7.90;74.90;;;;;;2345396;57;21049;-52
2022/12/01 05:40:42;;;;;;;112.85;43.97;;;7.90;74.90;;;;;;2345735;57;22141;-52
2022/12/01 05:43:10;;;;;;;102.72;41.35;;;7.90;74.90;;;;;;2345534;57;21038;-52
2022/12/01 05:45:37;;;;;;;109.90;46.33;;;7.90;74.90;;;;;;2345962;57;21121;-54
2022/12/01 05:48:05;;;;;;;111.25;45.25;;;7.90;75.00;;;;;;2346436;57;21475;-52
2022/12/01 05:50:32;;;;;;;116.45;46.40;;;7.90;74.90;;;;;;2345627;57;21089;-53
2022/12/01 05:52:59;;;;;;;104.30;42.58;;;7.90;74.70;;;;;;2344930;57;21098;-55
2022/12/01 05:55:26;;;;;;;103.93;41.72;;;7.90;74.80;;;;;;2345653;57;22115;-54
2022/12/01 05:57:53;;;;;;;106.78;43.97;;;7.90;75.50;;;;;;2345781;57;21129;-50
2022/12/01 06:00:21;;;;;;;117.62;45.25;;;7.90;74.90;;;;;;2345701;57;21054;-49
2022/12/01 06:02:48;;;;;;;100.95;41.83;;;7.90;74.90;;;;;;2344914;57;21117;-55
2022/12/01 06:05:16;;;;;;;109.25;43.42;;;7.90;74.80;;;;;;2345425;57;21554;-53
2022/12/01 06:07:43;;;;;;;105.20;42.90;;;7.90;74.70;;;;;;2344932;57;21054;-54
2022/12/01 06:10:11;;;;;;;98.25;40.58;;;7.90;74.70;;;;;;2343885;57;21046;-55
2022/12/01 06:12:39;;;;;;;100.80;43.05;;;8.00;74.80;;;;;;2344925;57;21038;-53
2022/12/01 06:15:09;;;;;;;118.05;45.78;;;7.90;74.70;;;;;;2344624;57;21110;-52
2022/12/01 06:17:37;;;;;;;97.10;41.13;;;7.90;74.60;;;;;;2344932;57;21284;-51
2022/12/01 06:20:06;;;;;;;111.55;45.53;;;8.00;74.60;;;;;;2344293;57;21638;-51
2022/12/01 06:22:33;;;;;;;105.30;41.42;;;8.00;74.60;;;;;;2344979;57;21645;-49
2022/12/01 06:25:00;;;;;;;100.43;43.22;;;8.00;74.50;;;;;;2344529;57;21049;-52
2022/12/01 06:27:27;;;;;;;111.10;43.42;;;8.00;74.50;;;;;;2345230;57;21176;-52
2022/12/01 06:29:55;;;;;;;109.90;45.33;;;8.00;74.40;;;;;;2344302;57;21038;-56
2022/12/01 06:32:22;;;;;;;110.72;43.90;;;8.00;74.30;;;;;;2344727;57;21181;-50
2022/12/01 06:34:49;;;;;;;105.97;44.40;;;8.00;74.30;;;;;;2344506;57;21117;-49
2022/12/01 06:37:16;;;;;;;103.32;44.30;;;7.90;74.20;;;;;;2344469;57;21058;-50
2022/12/01 06:39:43;;;;;;;101.30;42.20;;;8.00;74.30;;;;;;2344924;57;22169;-50
2022/12/01 06:42:10;;;;;;;111.35;41.88;;;7.90;74.30;;;;;;2343668;57;21121;-49
2022/12/01 06:44:38;;;;;;;102.35;45.28;;;7.90;74.30;;;;;;2344949;57;21113;-52
2022/12/01 06:47:06;;;;;;;114.72;46.63;;;7.90;74.20;;;;;;2344964;57;21117;-49
2022/12/01 06:49:35;;;;;;;107.00;43.20;;;7.90;74.20;;;;;;2344916;57;21109;-53
2022/12/01 06:52:02;;;;;;;108.45;43.47;;;7.90;74.10;;;;;;2344792;57;21046;-50
2022/12/01 06:54:29;;;;;;;106.87;42.72;;;7.90;74.20;;;;;;2344608;57;21050;-51
2022/12/01 06:56:57;;;;;;;103.57;43.33;;;7.90;74.20;;;;;;2344613;57;21034;-51
2022/12/01 06:59:24;;;;;;;115.03;44.80;;;7.90;74.20;;;;;;2344297;57;21042;-50
2022/12/01 07:01:52;;;;;;;113.15;43.35;;;7.90;74.10;;;;;;2345468;57;21429;-53
2022/12/01 07:04:19;;;;;;;112.70;45.15;;;7.90;74.80;;;;;;2345638;57;21038;-50
2022/12/01 07:06:46;;;;;;;108.30;42.28;;;7.80;73.90;;;;;;2344289;57;21691;-51
2022/12/01 07:09:13;;;;;;;102.28;40.58;;;7.80;74.10;;;;;;2344317;57;21054;-51
2022/12/01 07:11:40;;;;;;;101.43;41.72;;;7.80;74.10;;;;;;2344190;57;21049;-50
2022/12/01 07:14:15;;;;;;;97.60;42.25;;;7.80;74.20;;;;;;2344446;57;21106;-50
2022/12/01 07:16:42;;;;;;;94.13;38.67;;;7.80;74.20;;;;;;2344054;57;21045;-50
2022/12/01 07:19:10;;;;;;;106.93;42.08;;;7.80;74.30;;;;;;2344325;57;21051;-50
2022/12/01 07:21:37;;;;;;;103.40;41.63;;;7.80;74.30;;;;;;2344438;57;21113;-51
2022/12/01 07:24:06;;;;;;;96.82;40.50;;;7.80;74.30;;;;;;2344368;57;21047;-51
2022/12/01 07:26:33;;;;;;;101.90;40.45;;;7.80;74.30;;;;;;2345586;57;21014;-54
2022/12/01 07:29:00;;;;;;;105.03;41.40;;;7.80;74.10;;;;;;2344711;57;21675;-51
2022/12/01 07:31:27;;;;;;;108.72;44.65;;;7.70;73.90;;;;;;2344360;57;21058;-50
2022/12/01 07:33:54;;;;;;;103.22;42.42;;;7.70;73.80;;;;;;2344280;57;21037;-51
2022/12/01 07:36:21;;;;;;;105.40;41.97;;;7.70;73.80;;;;;;2344523;57;21065;-49
2022/12/01 07:38:48;;;;;;;100.90;40.45;;;7.70;73.80;;;;;;2344788;57;21070;-55
2022/12/01 07:41:18;;;;;;;102.60;40.38;;;7.70;73.90;;;;;;2344868;57;21105;-50
2022/12/01 07:43:46;;;;;;;110.57;42.75;;;7.70;73.90;;;;;;2345095;57;21541;-51
2022/12/01 07:46:15;;;;;;;95.80;37.55;;;7.70;74.00;;;;;;2344943;57;21038;-51
2022/12/01 07:48:43;;;;;;;98.95;38.55;;;7.70;74.10;;;;;;2344929;57;21517;-54
2022/12/01 07:51:12;;;;;;;96.43;39.42;;;7.70;74.10;;;;;;2344029;57;21551;-49
2022/12/01 07:53:39;;;;;;;105.87;41.75;;;7.70;74.00;;;;;;2344029;57;21622;-49
2022/12/01 07:56:07;;;;;;;94.68;39.67;;;7.70;74.00;;;;;;2344736;57;21189;-49
2022/12/01 07:58:35;;;;;;;123.80;43.35;;;7.70;74.00;;;;;;2344368;57;21045;-50
2022/12/01 08:01:06;;;;;;;106.10;41.03;;;7.70;74.00;;;;;;2345852;57;21558;-50
2022/12/01 08:03:34;;;;;;;99.10;39.20;;;7.60;73.90;;;;;;2345785;57;21030;-48
2022/12/01 08:08:39;;;;;;;112.28;49.13;;;7.60;73.80;;;;;;2335913;57;27775;-50
2022/12/01 08:11:09;;;;;;;119.50;45.53;;;7.30;75.40;;;;;;2346784;57;21109;-51
2022/12/01 08:13:36;;;;;;;104.38;42.72;;;7.40;75.10;;;;;;2346483;57;21097;-53
2022/12/01 08:16:04;;;;;;;104.07;40.17;;;7.50;75.20;;;;;;2346381;57;21050;-50
2022/12/01 08:18:34;;;;;;;99.00;38.65;;;7.60;74.10;;;;;;2346346;57;21558;-52
2022/12/01 08:21:01;;;;;;;103.35;39.95;;;7.60;73.90;;;;;;2345760;57;21637;-49
2022/12/01 08:23:28;;;;;;;94.60;39.28;;;7.60;73.80;;;;;;2345633;57;21046;-49
2022/12/01 08:25:59;;;;;;;103.07;41.22;;;7.60;73.70;;;;;;2345179;57;21121;-50
2022/12/01 08:28:26;;;;;;;104.87;39.80;;;7.60;73.60;;;;;;2345985;57;21890;-49
2022/12/01 08:30:53;;;;;;;100.07;38.72;;;7.60;73.60;;;;;;2345214;57;21102;-52
2022/12/01 08:33:20;;;;;;;99.35;39.65;;;7.60;73.70;;;;;;2345597;57;21112;-50
2022/12/01 08:35:48;;;;;;;98.90;35.78;;;7.60;73.70;;;;;;2346020;57;21038;-51
2022/12/01 08:38:15;;;;;;;99.93;38.72;;;7.60;73.80;;;;;;2345853;57;21054;-50
2022/12/01 08:40:43;;;;;;;96.63;40.58;;;7.60;73.90;;;;;;2346032;57;21035;-49
2022/12/01 08:43:10;;;;;;;96.87;37.83;;;7.60;73.80;;;;;;2344064;57;21525;-54
2022/12/01 08:45:37;;;;;;;105.47;40.78;;;7.60;73.90;;;;;;2345653;57;21058;-54
2022/12/01 08:48:05;;;;;;;93.22;37.55;;;7.60;73.90;;;;;;2345373;57;21061;-50
2022/12/01 08:50:32;;;;;;;102.00;41.20;;;7.60;73.90;;;;;;2345512;57;21102;-53
2022/12/01 08:52:59;;;;;;;101.25;38.22;;;7.60;73.90;;;;;;2346171;57;21030;-49
2022/12/01 08:55:26;;;;;;;106.30;40.85;;;7.60;73.90;;;;;;2346677;57;21062;-52
2022/12/01 08:57:53;;;;;;;96.70;39.45;;;7.70;73.70;;;;;;2346446;57;21102;-51
2022/12/01 09:00:21;;;;;;;86.80;37.08;;;7.70;73.50;;;;;;2344390;57;21121;-50
2022/12/01 09:02:48;;;;;;;98.65;39.72;;;7.70;73.50;;;;;;2345582;57;21046;-49
2022/12/01 09:05:16;;;;;;;101.15;38.65;;;7.60;73.50;;;;;;2345774;57;21050;-49
2022/12/01 09:07:44;;;;;;;98.82;41.08;;;7.70;73.40;;;;;;2345965;57;21672;-52
2022/12/01 09:10:12;;;;;;;88.70;36.42;;;7.70;73.50;;;;;;2347162;57;21034;-49
2022/12/01 09:12:39;;;;;;;86.05;35.38;;;7.60;73.40;;;;;;2346978;57;21085;-50
2022/12/01 09:15:08;;;;;;;104.40;37.13;;;7.60;73.40;;;;;;2346355;57;21057;-50
2022/12/01 09:20:13;;;;;;;93.18;36.28;;;7.60;73.20;;;;;;2328825;57;22164;-52
2022/12/01 09:22:40;;;;;;;98.78;37.15;;;7.60;73.20;;;;;;2347163;57;21061;-53
2022/12/01 09:25:13;;;;;;;93.78;36.15;;;7.60;73.20;;;;;;2375266;56;21043;-54
2022/12/01 09:27:40;;;;;;;85.75;35.38;;;7.60;73.10;;;;;;2375763;56;21058;-52
2022/12/01 09:30:10;;;;;;;91.80;35.05;;;7.60;72.90;;;;;;2374930;56;21023;-50
2022/12/01 09:32:37;;;;;;;92.65;31.90;;;7.60;72.70;;;;;;2372249;56;21563;-54
2022/12/01 09:35:05;;;;;;;89.80;34.03;;;7.60;73.60;;;;;;2373407;56;21023;-50
2022/12/01 09:37:32;;;;;;;92.82;32.45;;;7.50;72.50;;;;;;2374568;56;21090;-50
2022/12/01 09:39:59;;;;;;;80.80;31.35;;;7.40;72.50;;;;;;2372978;56;21114;-49
2022/12/01 09:42:26;;;;;;;91.85;32.17;;;7.40;72.40;;;;;;2374380;56;21055;-49
2022/12/01 09:44:56;;;;;;;77.15;28.05;;;7.40;72.40;;;;;;2374817;56;21591;-53
2022/12/01 09:50:01;;;;;;;80.10;32.83;;;7.30;72.50;;;;;;2334017;57;38118;-51
2022/12/01 09:52:32;;;;;;;67.65;27.67;;;7.00;73.40;;;;;;2347119;57;21046;-54
2022/12/01 09:55:00;;;;;;;65.90;25.37;;;7.10;73.30;;;;;;2344805;57;21508;-56
2022/12/01 09:57:31;;;;;;;63.22;25.12;;;7.20;72.80;;;;;;2345709;57;21526;-50
2022/12/01 10:00:01;;;;;;;69.57;25.65;;;7.20;72.50;;;;;;2345189;57;21676;-49
2022/12/01 10:02:35;;;;;;;68.15;24.75;;;7.30;72.30;;;;;;2344542;57;21556;-53
2022/12/01 10:05:04;;;;;;;;;;;7.30;72.20;;;;;;2348656;57;21061;-52
2022/12/01 10:07:35;;;;;;;60.65;22.40;;;7.30;72.40;;;;;;2344985;57;20106;-52
2022/12/01 10:10:06;;;;;;;60.92;22.02;;;7.30;71.70;;;;;;2345732;57;21069;-50
2022/12/01 10:12:34;;;;;;;58.42;21.25;;;7.30;71.50;;;;;;2345077;57;21131;-51
2022/12/01 10:15:19;;;;;;;55.78;20.85;;;7.30;71.50;;;;;;2344679;57;21137;-49
2022/12/01 10:17:57;;;;;;;50.75;20.10;;;7.20;71.30;;;;;;2345073;57;21050;-53
2022/12/01 10:20:29;;;;;;;58.83;22.60;;;7.20;71.30;;;;;;2345814;57;21062;-51
2022/12/01 10:23:28;;;;;;;55.65;21.48;;;7.20;71.30;;;;;;2345574;57;21117;-51
2022/12/01 10:25:58;;;;;;;57.58;21.65;;;7.20;71.20;;;;;;2345892;57;21557;-49
2022/12/01 10:28:48;;;;;;;52.35;20.67;;;7.10;71.00;;;;;;2345945;57;21105;-52
2022/12/01 10:31:19;;;;;;;59.97;23.65;;;7.10;71.20;;;;;;2346328;57;21498;-50
2022/12/01 10:33:57;;;;;;;70.60;24.10;;;7.10;71.20;;;;;;2345567;57;21534;-54
2022/12/01 10:36:25;;;;;;;56.50;22.50;;;7.10;71.30;;;;;;2345127;57;21545;-51
2022/12/01 10:38:53;;;;;;;54.80;20.83;;;7.10;71.20;;;;;;2343528;57;22965;-50
2022/12/01 10:41:23;;;;;;;61.78;21.20;;;7.10;71.20;;;;;;2343695;57;21050;-52
2022/12/01 10:43:56;;;;;;;60.80;22.02;;;7.10;71.30;;;;;;2345131;57;21049;-49
2022/12/01 10:46:28;;;;;;;56.30;21.77;;;7.10;71.30;;;;;;2345768;57;21042;-48
2022/12/01 10:48:57;;;;;;;64.90;23.87;;;7.10;71.40;;;;;;2345256;57;21550;-49
2022/12/01 10:51:26;;;;;;;62.40;22.20;;;7.00;71.30;;;;;;2345111;57;21053;-52
2022/12/01 10:53:59;;;;;;;56.05;22.40;;;7.00;71.40;;;;;;2345782;57;21609;-50
2022/12/01 10:56:26;;;;;;;84.62;26.15;;;7.00;71.40;;;;;;2344706;57;21050;-51
2022/12/01 10:58:57;;;;;;;60.63;22.08;;;7.00;71.60;;;;;;2345899;57;21121;-52
2022/12/01 11:01:27;;;;;;;77.95;21.80;;;7.00;71.80;;;;;;2343728;57;21033;-51
2022/12/01 11:03:56;;;;;;;76.50;22.33;;;7.00;72.00;;;;;;2345941;57;21518;-49
2022/12/01 11:06:26;;;;;;;59.55;21.75;;;7.00;72.10;;;;;;2346005;57;21122;-49
2022/12/01 11:08:57;;;;;;;79.97;25.23;;;7.00;72.10;;;;;;2346158;57;21499;-49
2022/12/01 11:11:28;;;;;;;63.10;22.37;;;6.90;72.10;;;;;;2345187;57;21054;-49
2022/12/01 11:13:58;;;;;;;58.63;21.02;;;6.90;72.20;;;;;;2344377;57;21046;-51
2022/12/01 11:16:38;;;;;;;60.03;20.60;;;6.90;73.00;;;;;;2344596;57;21605;-51
2022/12/01 11:19:17;;;;;;;66.95;21.73;;;6.90;72.30;;;;;;2344007;57;21145;-50
2022/12/01 11:21:47;;;;;;;69.05;23.60;;;7.00;72.30;;;;;;2345061;57;21617;-50
2022/12/01 11:24:41;;;;;;;75.65;23.50;;;7.00;72.30;;;;;;2345670;57;21046;-49
2022/12/01 11:27:15;;;;;;;73.70;23.52;;;7.00;72.30;;;;;;2345416;57;21570;-52
2022/12/01 11:29:45;;;;;;;79.70;25.88;;;7.00;72.30;;;;;;2344970;57;21089;-51
2022/12/01 11:34:56;;;;;;;76.00;23.92;;;7.00;72.50;;;;;;2380421;56;22117;-54
2022/12/01 11:37:27;;;;;;;87.65;24.70;;;7.00;72.60;;;;;;2373935;56;21273;-53
2022/12/01 11:40:03;;;;;;;83.85;25.05;;;7.00;72.60;;;;;;2375922;56;21407;-50
2022/12/01 11:42:33;;;;;;;84.00;25.23;;;7.00;72.60;;;;;;2376021;56;21015;-52
2022/12/01 11:45:06;;;;;;;89.82;26.00;;;7.00;72.70;;;;;;2376045;56;21027;-54
2022/12/01 11:47:33;;;;;;;78.05;26.15;;;7.00;72.70;;;;;;2376216;56;21090;-50
2022/12/01 11:50:06;;;;;;;82.72;25.92;;;7.00;72.60;;;;;;2374540;56;21550;-52
2022/12/01 11:52:35;;;;;;;90.05;26.45;;;7.00;72.70;;;;;;2374404;56;21531;-52
2022/12/01 11:55:19;;;;;;;82.03;25.70;;;7.00;72.80;;;;;;2374246;56;21038;-50
2022/12/01 11:57:49;;;;;;;71.40;23.27;;;7.00;72.80;;;;;;2374991;56;21078;-54
2022/12/01 12:00:20;;;;;;;78.40;23.23;;;7.00;72.80;;;;;;2375337;56;21035;-55
2022/12/01 12:03:06;;;;;;;80.82;23.65;;;7.00;73.00;;;;;;2375456;56;21055;-52
2022/12/01 12:05:55;;;;;;;73.78;22.83;;;7.10;73.10;;;;;;2375007;56;22093;-49
2022/12/01 12:08:33;;;;;;;82.93;24.17;;;7.00;73.00;;;;;;2374261;56;21579;-50
2022/12/01 12:11:10;;;;;;;108.85;26.17;;;7.00;73.00;;;;;;2374032;56;21606;-51
2022/12/01 12:14:16;;;;;;;105.43;26.40;;;7.00;73.20;;;;;;2374836;56;21117;-55
2022/12/01 12:16:57;;;;;;;147.40;29.20;;;7.00;73.30;;;;;;2374969;56;21644;-48
2022/12/01 12:19:38;;;;;;;85.70;24.35;;;7.00;73.20;;;;;;2375974;56;21070;-48
2022/12/01 12:22:17;;;;;;;87.37;25.48;;;7.00;73.40;;;;;;2375634;56;21070;-49
2022/12/01 12:24:55;;;;;;;76.15;22.70;;;7.00;73.40;;;;;;2374671;56;21598;-51
2022/12/01 12:27:32;;;;;;;83.90;23.67;;;7.00;73.30;;;;;;2373377;56;21047;-48
2022/12/01 12:30:10;;;;;;;85.12;25.58;;;7.00;73.20;;;;;;2373385;56;21107;-51
2022/12/01 12:33:05;;;;;;;98.57;25.12;;;7.00;73.30;;;;;;2372663;56;21031;-51
2022/12/01 12:35:39;;;;;;;99.20;27.67;;;7.00;73.50;;;;;;2372539;56;21035;-50
2022/12/01 12:38:14;;;;;;;82.78;25.33;;;7.00;73.50;;;;;;2371866;56;21759;-50
2022/12/01 12:40:54;;;;;;;90.70;24.42;;;6.90;73.40;;;;;;2374491;56;21574;-51
2022/12/01 12:43:29;;;;;;;79.85;23.02;;;7.00;73.60;;;;;;2373497;56;21043;-50
2022/12/01 12:46:06;;;;;;;67.80;22.52;;;7.00;73.60;;;;;;2373043;56;21050;-53
2022/12/01 12:48:50;;;;;;;68.80;21.00;;;7.00;73.70;;;;;;2372800;56;21089;-53
2022/12/01 12:51:21;;;;;;;66.32;21.98;;;7.00;73.90;;;;;;2371347;56;22356;-50
2022/12/01 12:53:52;;;;;;;61.72;19.40;;;7.00;73.90;;;;;;2373261;56;21151;-51
2022/12/01 12:56:23;;;;;;;63.67;21.73;;;7.00;73.90;;;;;;2374799;56;21042;-52
2022/12/01 12:58:56;;;;;;;68.90;21.08;;;7.00;74.10;;;;;;2375150;56;21158;-51
2022/12/01 13:01:29;;;;;;;71.85;20.45;;;7.00;74.00;;;;;;2373697;56;21083;-52
2022/12/01 13:04:01;;;;;;;64.28;19.27;;;7.00;73.80;;;;;;2371993;56;21362;-50
2022/12/01 13:09:10;;;;;;;62.55;22.27;;;7.10;73.70;;;;;;2305940;57;27944;-49
2022/12/01 13:11:44;;;;;;;58.40;19.70;;;6.80;75.10;;;;;;2344448;57;21549;-54
2022/12/01 13:19:29;;;;;;;55.55;18.00;;;7.20;73.80;;;;;;2324988;57;22144;-48